sensor_id;sensor_type;location;lat;lon;timestamp;P1;durP1;ratioP1;P2;durP2;ratioP2
67869;SDS011;54673;52.262;6.830;2022-09-09T00:04:29;2.70;;;1.10;;
67869;SDS011;54673;52.262;6.830;2022-09-09T00:07:07;2.17;;;1.60;;
67869;SDS011;54673;52.262;6.830;2022-09-09T00:10:03;2.85;;;1.00;;
67869;SDS011;54673;52.262;6.830;2022-09-09T00:12:51;1.58;;;0.80;;
67869;SDS011;54673;52.262;6.830;2022-09-09T00:15:29;2.50;;;1.07;;
67869;SDS011;54673;52.262;6.830;2022-09-09T00:18:03;2.25;;;1.17;;
67869;SDS011;54673;52.262;6.830;2022-09-09T00:26:42;1.67;;;0.80;;
67869;SDS011;54673;52.262;6.830;2022-09-09T00:31:45;1.20;;;0.70;;
67869;SDS011;54673;52.262;6.830;2022-09-09T00:34:12;1.30;;;1.20;;
67869;SDS011;54673;52.262;6.830;2022-09-09T00:36:41;1.63;;;0.90;;
67869;SDS011;54673;52.262;6.830;2022-09-09T00:39:29;2.17;;;0.90;;
67869;SDS011;54673;52.262;6.830;2022-09-09T00:44:56;1.53;;;0.83;;
67869;SDS011;54673;52.262;6.830;2022-09-09T00:47:46;2.72;;;1.15;;
67869;SDS011;54673;52.262;6.830;2022-09-09T00:50:39;2.93;;;1.03;;
67869;SDS011;54673;52.262;6.830;2022-09-09T00:56:03;2.03;;;1.00;;
67869;SDS011;54673;52.262;6.830;2022-09-09T00:58:53;1.67;;;1.10;;
67869;SDS011;54673;52.262;6.830;2022-09-09T01:01:31;2.60;;;1.15;;
67869;SDS011;54673;52.262;6.830;2022-09-09T01:03:57;2.73;;;1.00;;
67869;SDS011;54673;52.262;6.830;2022-09-09T01:12:12;1.07;;;0.90;;
67869;SDS011;54673;52.262;6.830;2022-09-09T01:15:01;1.90;;;0.82;;
67869;SDS011;54673;52.262;6.830;2022-09-09T01:17:44;2.40;;;1.00;;
67869;SDS011;54673;52.262;6.830;2022-09-09T01:20:17;1.07;;;0.83;;
67869;SDS011;54673;52.262;6.830;2022-09-09T01:28:39;1.10;;;0.85;;
67869;SDS011;54673;52.262;6.830;2022-09-09T01:31:07;1.83;;;1.02;;
67869;SDS011;54673;52.262;6.830;2022-09-09T01:33:36;2.73;;;1.00;;
67869;SDS011;54673;52.262;6.830;2022-09-09T01:36:09;2.00;;;0.90;;
67869;SDS011;54673;52.262;6.830;2022-09-09T01:38:38;2.33;;;1.03;;
67869;SDS011;54673;52.262;6.830;2022-09-09T01:41:04;1.25;;;0.85;;
67869;SDS011;54673;52.262;6.830;2022-09-09T01:43:30;2.47;;;1.00;;
67869;SDS011;54673;52.262;6.830;2022-09-09T01:45:56;3.30;;;0.88;;
67869;SDS011;54673;52.262;6.830;2022-09-09T01:48:25;1.88;;;1.02;;
67869;SDS011;54673;52.262;6.830;2022-09-09T01:50:51;2.30;;;0.80;;
67869;SDS011;54673;52.262;6.830;2022-09-09T01:53:17;1.42;;;1.13;;
67869;SDS011;54673;52.262;6.830;2022-09-09T01:59:37;1.17;;;0.82;;
67869;SDS011;54673;52.262;6.830;2022-09-09T02:04:38;2.10;;;1.20;;
67869;SDS011;54673;52.262;6.830;2022-09-09T02:09:57;3.05;;;1.08;;
67869;SDS011;54673;52.262;6.830;2022-09-09T02:12:35;1.30;;;1.00;;
67869;SDS011;54673;52.262;6.830;2022-09-09T02:15:05;1.73;;;0.90;;
67869;SDS011;54673;52.262;6.830;2022-09-09T02:17:38;3.63;;;1.13;;
67869;SDS011;54673;52.262;6.830;2022-09-09T02:20:08;1.75;;;1.10;;
67869;SDS011;54673;52.262;6.830;2022-09-09T02:22:37;1.27;;;0.80;;
67869;SDS011;54673;52.262;6.830;2022-09-09T02:25:05;1.70;;;0.90;;
67869;SDS011;54673;52.262;6.830;2022-09-09T02:27:33;1.88;;;0.98;;
67869;SDS011;54673;52.262;6.830;2022-09-09T02:30:00;2.05;;;1.20;;
67869;SDS011;54673;52.262;6.830;2022-09-09T02:32:28;2.13;;;1.10;;
67869;SDS011;54673;52.262;6.830;2022-09-09T02:35:02;1.13;;;1.02;;
67869;SDS011;54673;52.262;6.830;2022-09-09T02:37:34;3.00;;;1.05;;
67869;SDS011;54673;52.262;6.830;2022-09-09T02:40:04;1.20;;;1.10;;
67869;SDS011;54673;52.262;6.830;2022-09-09T02:42:31;2.10;;;1.13;;
67869;SDS011;54673;52.262;6.830;2022-09-09T02:44:57;2.30;;;1.10;;
67869;SDS011;54673;52.262;6.830;2022-09-09T02:47:29;2.45;;;1.02;;
67869;SDS011;54673;52.262;6.830;2022-09-09T02:53:09;1.03;;;0.87;;
67869;SDS011;54673;52.262;6.830;2022-09-09T02:55:50;2.08;;;1.00;;
67869;SDS011;54673;52.262;6.830;2022-09-09T02:58:27;2.72;;;1.30;;
67869;SDS011;54673;52.262;6.830;2022-09-09T03:00:53;1.50;;;1.00;;
67869;SDS011;54673;52.262;6.830;2022-09-09T03:03:20;1.33;;;1.08;;
67869;SDS011;54673;52.262;6.830;2022-09-09T03:05:46;1.23;;;0.90;;
67869;SDS011;54673;52.262;6.830;2022-09-09T03:08:12;2.67;;;1.20;;
67869;SDS011;54673;52.262;6.830;2022-09-09T03:10:38;1.67;;;1.00;;
67869;SDS011;54673;52.262;6.830;2022-09-09T03:13:04;2.95;;;1.17;;
67869;SDS011;54673;52.262;6.830;2022-09-09T03:15:30;1.33;;;1.20;;
67869;SDS011;54673;52.262;6.830;2022-09-09T03:17:57;2.88;;;1.30;;
67869;SDS011;54673;52.262;6.830;2022-09-09T03:20:24;1.55;;;1.23;;
67869;SDS011;54673;52.262;6.830;2022-09-09T03:22:51;2.37;;;1.20;;
67869;SDS011;54673;52.262;6.830;2022-09-09T03:25:17;3.38;;;1.23;;
67869;SDS011;54673;52.262;6.830;2022-09-09T03:27:43;2.50;;;1.40;;
67869;SDS011;54673;52.262;6.830;2022-09-09T03:30:08;2.55;;;1.40;;
67869;SDS011;54673;52.262;6.830;2022-09-09T03:32:34;1.50;;;1.17;;
67869;SDS011;54673;52.262;6.830;2022-09-09T03:35:00;1.80;;;1.30;;
67869;SDS011;54673;52.262;6.830;2022-09-09T03:37:26;2.43;;;1.23;;
67869;SDS011;54673;52.262;6.830;2022-09-09T03:39:51;1.30;;;1.02;;
67869;SDS011;54673;52.262;6.830;2022-09-09T03:42:19;1.42;;;1.10;;
67869;SDS011;54673;52.262;6.830;2022-09-09T03:44:45;1.83;;;1.20;;
67869;SDS011;54673;52.262;6.830;2022-09-09T03:47:14;1.40;;;1.23;;
67869;SDS011;54673;52.262;6.830;2022-09-09T03:49:44;2.73;;;1.40;;
67869;SDS011;54673;52.262;6.830;2022-09-09T03:52:10;1.13;;;1.00;;
67869;SDS011;54673;52.262;6.830;2022-09-09T03:54:36;1.92;;;1.00;;
67869;SDS011;54673;52.262;6.830;2022-09-09T03:57:02;1.47;;;1.00;;
67869;SDS011;54673;52.262;6.830;2022-09-09T03:59:28;2.67;;;1.25;;
67869;SDS011;54673;52.262;6.830;2022-09-09T04:01:53;1.63;;;1.30;;
67869;SDS011;54673;52.262;6.830;2022-09-09T04:04:19;1.30;;;1.08;;
67869;SDS011;54673;52.262;6.830;2022-09-09T04:06:46;2.17;;;1.40;;
67869;SDS011;54673;52.262;6.830;2022-09-09T04:09:13;1.40;;;1.03;;
67869;SDS011;54673;52.262;6.830;2022-09-09T04:11:39;2.25;;;1.40;;
67869;SDS011;54673;52.262;6.830;2022-09-09T04:14:05;3.00;;;1.30;;
67869;SDS011;54673;52.262;6.830;2022-09-09T04:16:31;1.10;;;1.00;;
67869;SDS011;54673;52.262;6.830;2022-09-09T04:19:01;2.08;;;1.40;;
67869;SDS011;54673;52.262;6.830;2022-09-09T04:21:29;1.30;;;1.20;;
67869;SDS011;54673;52.262;6.830;2022-09-09T04:23:57;1.83;;;1.40;;
67869;SDS011;54673;52.262;6.830;2022-09-09T04:26:23;2.47;;;1.30;;
67869;SDS011;54673;52.262;6.830;2022-09-09T04:28:49;2.00;;;1.30;;
67869;SDS011;54673;52.262;6.830;2022-09-09T04:31:24;2.70;;;1.13;;
67869;SDS011;54673;52.262;6.830;2022-09-09T04:33:50;3.20;;;1.30;;
67869;SDS011;54673;52.262;6.830;2022-09-09T04:36:17;2.17;;;1.13;;
67869;SDS011;54673;52.262;6.830;2022-09-09T04:38:44;2.03;;;1.50;;
67869;SDS011;54673;52.262;6.830;2022-09-09T04:41:10;6.13;;;1.30;;
67869;SDS011;54673;52.262;6.830;2022-09-09T04:43:36;3.40;;;1.52;;
67869;SDS011;54673;52.262;6.830;2022-09-09T04:46:02;2.27;;;1.37;;
67869;SDS011;54673;52.262;6.830;2022-09-09T04:48:28;1.35;;;1.00;;
67869;SDS011;54673;52.262;6.830;2022-09-09T04:51:03;4.60;;;1.30;;
67869;SDS011;54673;52.262;6.830;2022-09-09T04:53:30;2.10;;;1.13;;
67869;SDS011;54673;52.262;6.830;2022-09-09T04:56:05;3.13;;;1.42;;
67869;SDS011;54673;52.262;6.830;2022-09-09T04:58:32;4.17;;;1.40;;
67869;SDS011;54673;52.262;6.830;2022-09-09T05:01:05;1.92;;;1.10;;
67869;SDS011;54673;52.262;6.830;2022-09-09T05:03:35;2.60;;;1.33;;
67869;SDS011;54673;52.262;6.830;2022-09-09T05:08:31;2.38;;;1.23;;
67869;SDS011;54673;52.262;6.830;2022-09-09T05:10:57;1.70;;;1.43;;
67869;SDS011;54673;52.262;6.830;2022-09-09T05:13:24;2.30;;;1.48;;
67869;SDS011;54673;52.262;6.830;2022-09-09T05:15:53;1.87;;;1.40;;
67869;SDS011;54673;52.262;6.830;2022-09-09T05:18:19;2.80;;;1.30;;
67869;SDS011;54673;52.262;6.830;2022-09-09T05:20:47;2.00;;;1.35;;
67869;SDS011;54673;52.262;6.830;2022-09-09T05:23:13;3.67;;;1.17;;
67869;SDS011;54673;52.262;6.830;2022-09-09T05:25:39;2.72;;;1.75;;
67869;SDS011;54673;52.262;6.830;2022-09-09T05:28:08;2.30;;;1.50;;
67869;SDS011;54673;52.262;6.830;2022-09-09T05:30:34;1.90;;;1.52;;
67869;SDS011;54673;52.262;6.830;2022-09-09T05:32:59;2.97;;;1.60;;
67869;SDS011;54673;52.262;6.830;2022-09-09T05:35:25;2.80;;;1.42;;
67869;SDS011;54673;52.262;6.830;2022-09-09T05:37:51;2.57;;;1.43;;
67869;SDS011;54673;52.262;6.830;2022-09-09T05:40:17;3.45;;;1.55;;
67869;SDS011;54673;52.262;6.830;2022-09-09T05:42:43;1.57;;;1.20;;
67869;SDS011;54673;52.262;6.830;2022-09-09T05:45:09;2.45;;;1.50;;
67869;SDS011;54673;52.262;6.830;2022-09-09T05:47:35;5.63;;;1.77;;
67869;SDS011;54673;52.262;6.830;2022-09-09T05:50:02;5.55;;;1.60;;
67869;SDS011;54673;52.262;6.830;2022-09-09T05:52:28;3.63;;;1.40;;
67869;SDS011;54673;52.262;6.830;2022-09-09T05:54:53;3.30;;;1.38;;
67869;SDS011;54673;52.262;6.830;2022-09-09T05:57:21;2.20;;;1.37;;
67869;SDS011;54673;52.262;6.830;2022-09-09T05:59:46;3.65;;;1.52;;
67869;SDS011;54673;52.262;6.830;2022-09-09T06:02:12;2.53;;;1.20;;
67869;SDS011;54673;52.262;6.830;2022-09-09T06:04:38;4.55;;;1.20;;
67869;SDS011;54673;52.262;6.830;2022-09-09T06:07:04;1.73;;;1.27;;
67869;SDS011;54673;52.262;6.830;2022-09-09T06:09:30;4.47;;;1.50;;
67869;SDS011;54673;52.262;6.830;2022-09-09T06:11:56;4.33;;;1.40;;
67869;SDS011;54673;52.262;6.830;2022-09-09T06:14:23;2.15;;;1.50;;
67869;SDS011;54673;52.262;6.830;2022-09-09T06:16:50;3.53;;;1.45;;
67869;SDS011;54673;52.262;6.830;2022-09-09T06:19:15;3.80;;;1.67;;
67869;SDS011;54673;52.262;6.830;2022-09-09T06:21:41;3.03;;;1.70;;
67869;SDS011;54673;52.262;6.830;2022-09-09T06:24:07;2.63;;;1.60;;
67869;SDS011;54673;52.262;6.830;2022-09-09T06:26:37;5.25;;;1.60;;
67869;SDS011;54673;52.262;6.830;2022-09-09T06:29:06;2.67;;;1.20;;
67869;SDS011;54673;52.262;6.830;2022-09-09T06:31:33;3.87;;;1.57;;
67869;SDS011;54673;52.262;6.830;2022-09-09T06:34:02;3.95;;;1.45;;
67869;SDS011;54673;52.262;6.830;2022-09-09T06:36:31;1.93;;;1.10;;
67869;SDS011;54673;52.262;6.830;2022-09-09T06:38:58;1.88;;;1.02;;
67869;SDS011;54673;52.262;6.830;2022-09-09T06:41:26;3.67;;;1.42;;
67869;SDS011;54673;52.262;6.830;2022-09-09T06:43:53;2.57;;;1.27;;
67869;SDS011;54673;52.262;6.830;2022-09-09T06:46:21;2.10;;;1.27;;
67869;SDS011;54673;52.262;6.830;2022-09-09T06:48:48;6.27;;;1.33;;
67869;SDS011;54673;52.262;6.830;2022-09-09T06:51:17;4.95;;;1.27;;
67869;SDS011;54673;52.262;6.830;2022-09-09T06:53:49;2.47;;;1.35;;
67869;SDS011;54673;52.262;6.830;2022-09-09T06:56:18;2.17;;;1.33;;
67869;SDS011;54673;52.262;6.830;2022-09-09T06:58:45;3.53;;;1.30;;
67869;SDS011;54673;52.262;6.830;2022-09-09T07:01:12;2.85;;;1.27;;
67869;SDS011;54673;52.262;6.830;2022-09-09T07:03:39;4.40;;;1.40;;
67869;SDS011;54673;52.262;6.830;2022-09-09T07:06:07;2.33;;;1.10;;
67869;SDS011;54673;52.262;6.830;2022-09-09T07:08:39;4.83;;;1.20;;
67869;SDS011;54673;52.262;6.830;2022-09-09T07:11:06;9.40;;;1.35;;
67869;SDS011;54673;52.262;6.830;2022-09-09T07:13:33;5.72;;;1.30;;
67869;SDS011;54673;52.262;6.830;2022-09-09T07:16:06;4.80;;;1.20;;
67869;SDS011;54673;52.262;6.830;2022-09-09T07:18:33;9.18;;;1.65;;
67869;SDS011;54673;52.262;6.830;2022-09-09T07:20:59;3.83;;;1.30;;
67869;SDS011;54673;52.262;6.830;2022-09-09T07:23:27;5.57;;;2.03;;
67869;SDS011;54673;52.262;6.830;2022-09-09T07:25:53;6.32;;;1.00;;
67869;SDS011;54673;52.262;6.830;2022-09-09T07:28:19;4.90;;;1.20;;
67869;SDS011;54673;52.262;6.830;2022-09-09T07:30:58;4.70;;;1.23;;
67869;SDS011;54673;52.262;6.830;2022-09-09T07:33:28;6.35;;;1.80;;
67869;SDS011;54673;52.262;6.830;2022-09-09T07:36:12;5.30;;;1.50;;
67869;SDS011;54673;52.262;6.830;2022-09-09T07:41:08;2.93;;;1.20;;
67869;SDS011;54673;52.262;6.830;2022-09-09T07:43:37;4.55;;;1.20;;
67869;SDS011;54673;52.262;6.830;2022-09-09T07:46:07;3.27;;;1.20;;
67869;SDS011;54673;52.262;6.830;2022-09-09T07:48:33;5.63;;;1.23;;
67869;SDS011;54673;52.262;6.830;2022-09-09T07:51:03;4.95;;;1.35;;
67869;SDS011;54673;52.262;6.830;2022-09-09T07:53:34;7.33;;;1.50;;
67869;SDS011;54673;52.262;6.830;2022-09-09T07:56:08;3.65;;;1.42;;
67869;SDS011;54673;52.262;6.830;2022-09-09T07:58:36;3.28;;;1.30;;
67869;SDS011;54673;52.262;6.830;2022-09-09T08:01:13;6.07;;;1.40;;
67869;SDS011;54673;52.262;6.830;2022-09-09T08:03:44;4.75;;;1.13;;
67869;SDS011;54673;52.262;6.830;2022-09-09T08:06:11;8.67;;;1.40;;
67869;SDS011;54673;52.262;6.830;2022-09-09T08:08:37;3.95;;;1.08;;
67869;SDS011;54673;52.262;6.830;2022-09-09T08:11:07;4.18;;;1.00;;
67869;SDS011;54673;52.262;6.830;2022-09-09T08:13:38;5.87;;;1.40;;
67869;SDS011;54673;52.262;6.830;2022-09-09T08:16:05;5.85;;;1.10;;
67869;SDS011;54673;52.262;6.830;2022-09-09T08:18:41;4.97;;;1.40;;
67869;SDS011;54673;52.262;6.830;2022-09-09T08:21:11;7.27;;;1.50;;
67869;SDS011;54673;52.262;6.830;2022-09-09T08:23:39;3.97;;;1.23;;
67869;SDS011;54673;52.262;6.830;2022-09-09T08:26:08;3.50;;;1.20;;
67869;SDS011;54673;52.262;6.830;2022-09-09T08:28:39;2.38;;;1.00;;
67869;SDS011;54673;52.262;6.830;2022-09-09T08:31:06;2.72;;;1.23;;
67869;SDS011;54673;52.262;6.830;2022-09-09T08:33:33;2.80;;;1.10;;
67869;SDS011;54673;52.262;6.830;2022-09-09T08:35:58;1.98;;;1.08;;
67869;SDS011;54673;52.262;6.830;2022-09-09T08:38:24;6.70;;;1.60;;
67869;SDS011;54673;52.262;6.830;2022-09-09T08:40:49;4.00;;;0.97;;
67869;SDS011;54673;52.262;6.830;2022-09-09T08:43:24;3.45;;;1.20;;
67869;SDS011;54673;52.262;6.830;2022-09-09T08:45:53;4.05;;;1.25;;
67869;SDS011;54673;52.262;6.830;2022-09-09T08:48:39;3.43;;;0.93;;
67869;SDS011;54673;52.262;6.830;2022-09-09T08:51:13;3.33;;;1.13;;
67869;SDS011;54673;52.262;6.830;2022-09-09T08:53:43;5.07;;;1.60;;
67869;SDS011;54673;52.262;6.830;2022-09-09T08:56:16;6.37;;;1.33;;
67869;SDS011;54673;52.262;6.830;2022-09-09T08:58:47;7.32;;;1.40;;
67869;SDS011;54673;52.262;6.830;2022-09-09T09:09:50;8.30;;;2.93;;
67869;SDS011;54673;52.262;6.830;2022-09-09T09:12:44;4.30;;;2.00;;
67869;SDS011;54673;52.262;6.830;2022-09-09T09:15:14;7.93;;;1.83;;
67869;SDS011;54673;52.262;6.830;2022-09-09T09:17:46;5.43;;;1.60;;
67869;SDS011;54673;52.262;6.830;2022-09-09T09:20:14;3.53;;;1.20;;
67869;SDS011;54673;52.262;6.830;2022-09-09T09:22:51;3.83;;;1.10;;
67869;SDS011;54673;52.262;6.830;2022-09-09T09:25:22;5.25;;;1.23;;
67869;SDS011;54673;52.262;6.830;2022-09-09T09:27:59;3.30;;;1.33;;
67869;SDS011;54673;52.262;6.830;2022-09-09T09:30:26;4.00;;;1.23;;
67869;SDS011;54673;52.262;6.830;2022-09-09T09:32:57;5.60;;;1.42;;
67869;SDS011;54673;52.262;6.830;2022-09-09T09:35:27;5.77;;;1.30;;
67869;SDS011;54673;52.262;6.830;2022-09-09T09:37:52;6.25;;;1.27;;
67869;SDS011;54673;52.262;6.830;2022-09-09T09:40:19;4.27;;;1.33;;
67869;SDS011;54673;52.262;6.830;2022-09-09T09:42:51;4.00;;;1.20;;
67869;SDS011;54673;52.262;6.830;2022-09-09T09:45:32;5.18;;;1.27;;
67869;SDS011;54673;52.262;6.830;2022-09-09T09:48:09;5.77;;;1.27;;
67869;SDS011;54673;52.262;6.830;2022-09-09T09:50:47;5.68;;;1.25;;
67869;SDS011;54673;52.262;6.830;2022-09-09T09:53:29;3.63;;;1.00;;
67869;SDS011;54673;52.262;6.830;2022-09-09T10:01:22;3.40;;;0.90;;
67869;SDS011;54673;52.262;6.830;2022-09-09T10:03:52;2.15;;;1.20;;
67869;SDS011;54673;52.262;6.830;2022-09-09T10:06:30;4.07;;;1.10;;
67869;SDS011;54673;52.262;6.830;2022-09-09T10:08:55;3.53;;;1.33;;
67869;SDS011;54673;52.262;6.830;2022-09-09T10:11:25;3.63;;;1.05;;
67869;SDS011;54673;52.262;6.830;2022-09-09T10:14:20;6.10;;;1.27;;
67869;SDS011;54673;52.262;6.830;2022-09-09T10:19:36;6.13;;;1.40;;
67869;SDS011;54673;52.262;6.830;2022-09-09T10:24:41;3.42;;;1.10;;
67869;SDS011;54673;52.262;6.830;2022-09-09T10:30:20;7.28;;;1.20;;
67869;SDS011;54673;52.262;6.830;2022-09-09T10:33:12;6.07;;;1.40;;
67869;SDS011;54673;52.262;6.830;2022-09-09T10:35:57;6.57;;;1.70;;
67869;SDS011;54673;52.262;6.830;2022-09-09T10:38:37;11.95;;;3.60;;
67869;SDS011;54673;52.262;6.830;2022-09-09T10:41:19;15.95;;;4.82;;
67869;SDS011;54673;52.262;6.830;2022-09-09T10:44:05;6.03;;;2.13;;
67869;SDS011;54673;52.262;6.830;2022-09-09T11:00:15;2.50;;;1.08;;
67869;SDS011;54673;52.262;6.830;2022-09-09T11:02:44;7.60;;;1.13;;
67869;SDS011;54673;52.262;6.830;2022-09-09T11:05:20;7.70;;;1.43;;
67869;SDS011;54673;52.262;6.830;2022-09-09T11:07:51;4.00;;;1.00;;
67869;SDS011;54673;52.262;6.830;2022-09-09T11:10:26;2.50;;;1.03;;
67869;SDS011;54673;52.262;6.830;2022-09-09T11:12:56;4.28;;;1.08;;
67869;SDS011;54673;52.262;6.830;2022-09-09T11:15:38;2.40;;;1.00;;
67869;SDS011;54673;52.262;6.830;2022-09-09T11:18:07;1.40;;;0.90;;
67869;SDS011;54673;52.262;6.830;2022-09-09T11:20:39;4.75;;;1.17;;
67869;SDS011;54673;52.262;6.830;2022-09-09T11:23:09;3.83;;;1.10;;
67869;SDS011;54673;52.262;6.830;2022-09-09T11:25:42;5.05;;;1.13;;
67869;SDS011;54673;52.262;6.830;2022-09-09T11:34:13;5.22;;;1.02;;
67869;SDS011;54673;52.262;6.830;2022-09-09T11:39:47;3.57;;;0.97;;
67869;SDS011;54673;52.262;6.830;2022-09-09T11:42:25;4.05;;;0.98;;
67869;SDS011;54673;52.262;6.830;2022-09-09T11:44:51;7.23;;;0.90;;
67869;SDS011;54673;52.262;6.830;2022-09-09T11:49:51;3.80;;;1.10;;
67869;SDS011;54673;52.262;6.830;2022-09-09T11:52:22;3.07;;;0.97;;
67869;SDS011;54673;52.262;6.830;2022-09-09T11:55:08;2.42;;;0.95;;
67869;SDS011;54673;52.262;6.830;2022-09-09T11:57:57;3.97;;;1.33;;
67869;SDS011;54673;52.262;6.830;2022-09-09T12:00:33;3.80;;;1.10;;
67869;SDS011;54673;52.262;6.830;2022-09-09T12:03:31;4.20;;;1.27;;
67869;SDS011;54673;52.262;6.830;2022-09-09T12:06:09;2.90;;;0.93;;
67869;SDS011;54673;52.262;6.830;2022-09-09T12:08:40;2.08;;;0.88;;
67869;SDS011;54673;52.262;6.830;2022-09-09T12:11:08;3.10;;;0.98;;
67869;SDS011;54673;52.262;6.830;2022-09-09T12:13:34;5.30;;;1.23;;
67869;SDS011;54673;52.262;6.830;2022-09-09T12:16:01;6.72;;;1.10;;
67869;SDS011;54673;52.262;6.830;2022-09-09T12:18:37;2.70;;;0.80;;
67869;SDS011;54673;52.262;6.830;2022-09-09T12:21:25;5.38;;;0.82;;
67869;SDS011;54673;52.262;6.830;2022-09-09T12:24:19;2.35;;;0.85;;
67869;SDS011;54673;52.262;6.830;2022-09-09T12:27:12;6.13;;;1.30;;
67869;SDS011;54673;52.262;6.830;2022-09-09T12:29:59;3.70;;;1.10;;
67869;SDS011;54673;52.262;6.830;2022-09-09T12:32:32;6.23;;;1.30;;
67869;SDS011;54673;52.262;6.830;2022-09-09T12:35:09;4.20;;;0.90;;
67869;SDS011;54673;52.262;6.830;2022-09-09T12:38:01;4.30;;;1.23;;
67869;SDS011;54673;52.262;6.830;2022-09-09T12:40:30;2.70;;;0.83;;
67869;SDS011;54673;52.262;6.830;2022-09-09T12:42:59;1.77;;;0.82;;
67869;SDS011;54673;52.262;6.830;2022-09-09T12:45:27;3.13;;;0.80;;
67869;SDS011;54673;52.262;6.830;2022-09-09T12:50:33;3.08;;;1.20;;
67869;SDS011;54673;52.262;6.830;2022-09-09T12:55:51;2.63;;;0.82;;
67869;SDS011;54673;52.262;6.830;2022-09-09T12:58:20;3.33;;;0.95;;
67869;SDS011;54673;52.262;6.830;2022-09-09T13:00:50;3.37;;;0.80;;
67869;SDS011;54673;52.262;6.830;2022-09-09T13:03:18;3.55;;;0.95;;
67869;SDS011;54673;52.262;6.830;2022-09-09T13:05:48;1.98;;;0.70;;
67869;SDS011;54673;52.262;6.830;2022-09-09T13:08:14;2.97;;;0.90;;
67869;SDS011;54673;52.262;6.830;2022-09-09T13:10:52;3.05;;;1.25;;
67869;SDS011;54673;52.262;6.830;2022-09-09T13:13:28;2.57;;;1.20;;
67869;SDS011;54673;52.262;6.830;2022-09-09T13:16:00;2.47;;;1.00;;
67869;SDS011;54673;52.262;6.830;2022-09-09T13:18:28;3.08;;;0.90;;
67869;SDS011;54673;52.262;6.830;2022-09-09T13:20:58;3.47;;;1.07;;
67869;SDS011;54673;52.262;6.830;2022-09-09T13:23:35;5.90;;;0.90;;
67869;SDS011;54673;52.262;6.830;2022-09-09T13:26:03;3.78;;;0.98;;
67869;SDS011;54673;52.262;6.830;2022-09-09T13:28:48;9.20;;;0.80;;
67869;SDS011;54673;52.262;6.830;2022-09-09T13:31:27;3.70;;;0.70;;
67869;SDS011;54673;52.262;6.830;2022-09-09T13:33:54;3.72;;;0.65;;
67869;SDS011;54673;52.262;6.830;2022-09-09T13:36:30;1.83;;;0.70;;
67869;SDS011;54673;52.262;6.830;2022-09-09T13:38:58;5.60;;;0.95;;
67869;SDS011;54673;52.262;6.830;2022-09-09T13:41:27;2.60;;;0.90;;
67869;SDS011;54673;52.262;6.830;2022-09-09T13:43:58;4.13;;;0.90;;
67869;SDS011;54673;52.262;6.830;2022-09-09T13:49:22;3.27;;;0.70;;
67869;SDS011;54673;52.262;6.830;2022-09-09T13:51:48;3.08;;;1.05;;
67869;SDS011;54673;52.262;6.830;2022-09-09T13:54:17;1.75;;;0.90;;
67869;SDS011;54673;52.262;6.830;2022-09-09T13:56:45;2.00;;;0.80;;
67869;SDS011;54673;52.262;6.830;2022-09-09T13:59:14;3.08;;;0.82;;
67869;SDS011;54673;52.262;6.830;2022-09-09T14:01:44;1.73;;;0.90;;
67869;SDS011;54673;52.262;6.830;2022-09-09T14:04:10;2.63;;;0.90;;
67869;SDS011;54673;52.262;6.830;2022-09-09T14:06:37;1.05;;;0.60;;
67869;SDS011;54673;52.262;6.830;2022-09-09T14:09:07;2.30;;;0.70;;
67869;SDS011;54673;52.262;6.830;2022-09-09T14:11:35;1.88;;;0.70;;
67869;SDS011;54673;52.262;6.830;2022-09-09T14:14:01;1.23;;;0.80;;
67869;SDS011;54673;52.262;6.830;2022-09-09T14:16:26;1.45;;;0.80;;
67869;SDS011;54673;52.262;6.830;2022-09-09T14:18:53;1.47;;;0.67;;
67869;SDS011;54673;52.262;6.830;2022-09-09T14:21:21;1.70;;;0.80;;
67869;SDS011;54673;52.262;6.830;2022-09-09T14:23:46;1.65;;;0.95;;
67869;SDS011;54673;52.262;6.830;2022-09-09T14:26:13;0.70;;;0.70;;
67869;SDS011;54673;52.262;6.830;2022-09-09T14:28:38;1.92;;;0.80;;
67869;SDS011;54673;52.262;6.830;2022-09-09T14:31:05;1.57;;;0.80;;
67869;SDS011;54673;52.262;6.830;2022-09-09T14:33:32;2.58;;;0.82;;
67869;SDS011;54673;52.262;6.830;2022-09-09T14:35:59;1.30;;;0.80;;
67869;SDS011;54673;52.262;6.830;2022-09-09T14:38:28;3.75;;;1.25;;
67869;SDS011;54673;52.262;6.830;2022-09-09T14:40:55;1.85;;;0.75;;
67869;SDS011;54673;52.262;6.830;2022-09-09T14:43:21;2.73;;;0.90;;
67869;SDS011;54673;52.262;6.830;2022-09-09T14:45:47;3.17;;;0.90;;
67869;SDS011;54673;52.262;6.830;2022-09-09T14:48:16;2.53;;;1.10;;
67869;SDS011;54673;52.262;6.830;2022-09-09T14:50:42;2.75;;;1.20;;
67869;SDS011;54673;52.262;6.830;2022-09-09T14:53:08;1.42;;;0.90;;
67869;SDS011;54673;52.262;6.830;2022-09-09T14:55:35;2.43;;;1.10;;
67869;SDS011;54673;52.262;6.830;2022-09-09T14:58:01;3.00;;;1.33;;
67869;SDS011;54673;52.262;6.830;2022-09-09T15:00:27;2.33;;;1.20;;
67869;SDS011;54673;52.262;6.830;2022-09-09T15:02:53;2.30;;;1.20;;
67869;SDS011;54673;52.262;6.830;2022-09-09T15:05:19;3.17;;;1.20;;
67869;SDS011;54673;52.262;6.830;2022-09-09T15:07:45;5.43;;;1.10;;
67869;SDS011;54673;52.262;6.830;2022-09-09T15:10:11;3.88;;;1.10;;
67869;SDS011;54673;52.262;6.830;2022-09-09T15:12:37;2.93;;;0.80;;
67869;SDS011;54673;52.262;6.830;2022-09-09T15:15:03;2.45;;;1.50;;
67869;SDS011;54673;52.262;6.830;2022-09-09T15:17:30;2.17;;;1.10;;
67869;SDS011;54673;52.262;6.830;2022-09-09T15:19:56;4.60;;;1.00;;
67869;SDS011;54673;52.262;6.830;2022-09-09T15:22:22;3.65;;;1.00;;
67869;SDS011;54673;52.262;6.830;2022-09-09T15:24:49;3.70;;;1.10;;
67869;SDS011;54673;52.262;6.830;2022-09-09T15:27:14;1.88;;;0.88;;
67869;SDS011;54673;52.262;6.830;2022-09-09T15:29:40;3.60;;;1.00;;
67869;SDS011;54673;52.262;6.830;2022-09-09T15:32:06;2.75;;;1.00;;
67869;SDS011;54673;52.262;6.830;2022-09-09T15:34:32;3.05;;;1.38;;
67869;SDS011;54673;52.262;6.830;2022-09-09T15:36:58;2.63;;;1.03;;
67869;SDS011;54673;52.262;6.830;2022-09-09T15:39:24;2.47;;;1.20;;
67869;SDS011;54673;52.262;6.830;2022-09-09T15:41:50;2.63;;;1.20;;
67869;SDS011;54673;52.262;6.830;2022-09-09T15:44:16;3.13;;;1.10;;
67869;SDS011;54673;52.262;6.830;2022-09-09T15:46:43;5.30;;;1.10;;
67869;SDS011;54673;52.262;6.830;2022-09-09T15:49:16;3.20;;;1.00;;
67869;SDS011;54673;52.262;6.830;2022-09-09T15:51:44;1.93;;;1.00;;
67869;SDS011;54673;52.262;6.830;2022-09-09T15:54:15;1.95;;;1.30;;
67869;SDS011;54673;52.262;6.830;2022-09-09T15:56:42;3.13;;;1.33;;
67869;SDS011;54673;52.262;6.830;2022-09-09T15:59:09;6.43;;;1.30;;
67869;SDS011;54673;52.262;6.830;2022-09-09T16:01:35;3.33;;;1.23;;
67869;SDS011;54673;52.262;6.830;2022-09-09T16:04:01;2.87;;;1.10;;
67869;SDS011;54673;52.262;6.830;2022-09-09T16:06:27;1.73;;;1.00;;
67869;SDS011;54673;52.262;6.830;2022-09-09T16:08:54;3.50;;;1.00;;
67869;SDS011;54673;52.262;6.830;2022-09-09T16:11:22;2.93;;;1.10;;
67869;SDS011;54673;52.262;6.830;2022-09-09T16:13:50;2.30;;;1.27;;
67869;SDS011;54673;52.262;6.830;2022-09-09T16:16:17;3.73;;;1.10;;
67869;SDS011;54673;52.262;6.830;2022-09-09T16:18:47;1.80;;;0.90;;
67869;SDS011;54673;52.262;6.830;2022-09-09T16:21:30;1.92;;;0.90;;
67869;SDS011;54673;52.262;6.830;2022-09-09T16:23:58;3.13;;;1.30;;
67869;SDS011;54673;52.262;6.830;2022-09-09T16:26:24;3.72;;;0.90;;
67869;SDS011;54673;52.262;6.830;2022-09-09T16:28:52;3.38;;;1.00;;
67869;SDS011;54673;52.262;6.830;2022-09-09T16:31:20;3.40;;;1.10;;
67869;SDS011;54673;52.262;6.830;2022-09-09T16:33:48;2.72;;;1.20;;
67869;SDS011;54673;52.262;6.830;2022-09-09T16:36:16;3.40;;;1.23;;
67869;SDS011;54673;52.262;6.830;2022-09-09T16:38:46;4.10;;;1.40;;
67869;SDS011;54673;52.262;6.830;2022-09-09T16:41:12;3.35;;;1.38;;
67869;SDS011;54673;52.262;6.830;2022-09-09T16:43:39;3.70;;;1.30;;
67869;SDS011;54673;52.262;6.830;2022-09-09T16:46:11;2.22;;;1.10;;
67869;SDS011;54673;52.262;6.830;2022-09-09T16:48:43;5.70;;;1.33;;